createdAt,value
2019-02-03T00:01:23.228Z,99.90
2019-02-03T00:03:51.227Z,99.90
2019-02-03T00:06:20.572Z,99.90
2019-02-03T00:08:51.499Z,99.90
2019-02-03T00:11:19.520Z,99.90
2019-02-03T00:13:47.597Z,99.90
2019-02-03T00:16:15.638Z,99.90
2019-02-03T00:18:46.716Z,99.90
2019-02-03T00:21:14.770Z,99.90
2019-02-03T00:23:42.874Z,99.90
2019-02-03T00:26:10.794Z,99.90
2019-02-03T00:28:38.651Z,99.90
2019-02-03T00:31:06.790Z,99.90
2019-02-03T00:33:35.024Z,99.90
2019-02-03T00:36:03.340Z,99.90
2019-02-03T00:38:31.802Z,99.60
2019-02-03T00:41:02.548Z,99.90
2019-02-03T00:43:30.487Z,99.90
2019-02-03T00:46:01.678Z,99.70
2019-02-03T00:48:29.765Z,99.90
2019-02-03T00:50:57.871Z,99.90
2019-02-03T00:53:25.736Z,99.90
2019-02-03T00:55:53.986Z,99.30
2019-02-03T00:58:22.022Z,99.90
2019-02-03T01:00:49.948Z,99.30
2019-02-03T01:03:17.919Z,99.90
2019-02-03T01:05:45.762Z,99.60
2019-02-03T01:08:14.322Z,99.90
2019-02-03T01:10:42.395Z,99.90
2019-02-03T01:13:10.388Z,99.90
2019-02-03T01:15:38.298Z,99.90
2019-02-03T01:18:06.797Z,99.90
2019-02-03T01:20:34.712Z,99.90
2019-02-03T01:23:03.045Z,99.90
2019-02-03T01:25:30.940Z,99.90
2019-02-03T01:27:58.840Z,99.90
2019-02-03T01:30:26.839Z,99.90
2019-02-03T01:32:54.758Z,99.90
2019-02-03T01:35:22.750Z,99.90
2019-02-03T01:37:51.228Z,99.90
2019-02-03T01:40:19.824Z,99.90
2019-02-03T01:42:47.846Z,99.90
2019-02-03T01:45:18.138Z,99.90
2019-02-03T01:47:46.622Z,99.90
2019-02-03T01:50:17.166Z,99.90
2019-02-03T01:52:45.182Z,99.90
2019-02-03T01:55:18.113Z,99.90
2019-02-03T01:57:46.030Z,99.90
2019-02-03T02:00:20.444Z,99.90
2019-02-03T02:02:48.514Z,99.90
2019-02-03T02:05:16.965Z,99.90
2019-02-03T02:07:51.862Z,99.90
2019-02-03T02:10:18.324Z,99.90
2019-02-03T02:12:46.242Z,99.90
2019-02-03T02:15:16.043Z,99.90
2019-02-03T02:17:43.963Z,99.90
2019-02-03T02:20:19.379Z,99.90
2019-02-03T02:22:47.331Z,99.90
2019-02-03T02:25:15.607Z,99.90
2019-02-03T02:27:43.527Z,99.90
2019-02-03T02:30:15.186Z,99.90
2019-02-03T02:32:43.193Z,99.90
2019-02-03T02:35:11.802Z,99.90
2019-02-03T02:37:39.726Z,99.90
2019-02-03T02:40:22.644Z,99.90
2019-02-03T02:42:50.448Z,99.90
2019-02-03T02:45:18.389Z,99.90
2019-02-03T02:47:46.441Z,99.90
2019-02-03T02:50:27.200Z,99.90
2019-02-03T02:52:55.188Z,99.90
2019-02-03T02:55:23.058Z,99.90
2019-02-03T02:57:51.313Z,99.90
2019-02-03T03:00:24.506Z,99.90
2019-02-03T03:02:52.532Z,99.90
2019-02-03T03:05:20.941Z,99.90
2019-02-03T03:07:48.997Z,99.90
2019-02-03T03:10:18.103Z,99.90
2019-02-03T03:12:46.143Z,99.90
2019-02-03T03:15:15.671Z,99.90
2019-02-03T03:17:43.706Z,99.90
2019-02-03T03:20:14.636Z,99.90
2019-02-03T03:22:43.028Z,99.90
2019-02-03T03:25:14.232Z,99.90
2019-02-03T03:27:42.295Z,99.90
2019-02-03T03:30:21.429Z,99.90
2019-02-03T03:32:49.495Z,99.90
2019-02-03T03:35:17.562Z,99.90
2019-02-03T03:37:46.274Z,99.90
2019-02-03T03:40:17.334Z,99.90
2019-02-03T03:42:48.349Z,99.90
2019-02-03T03:45:16.278Z,99.90
2019-02-03T03:47:46.563Z,99.90
2019-02-03T03:50:16.611Z,99.90
2019-02-03T03:52:47.889Z,99.90
2019-02-03T03:55:17.136Z,99.90
2019-02-03T03:57:46.737Z,99.90
2019-02-03T04:00:23.121Z,99.90
2019-02-03T04:02:53.679Z,99.90
2019-02-03T04:05:28.563Z,99.90
2019-02-03T04:07:57.384Z,99.90
2019-02-03T04:10:25.892Z,99.90
2019-02-03T04:12:54.863Z,99.90
2019-02-03T04:15:23.632Z,99.90
2019-02-03T04:17:51.978Z,99.90
2019-02-03T04:20:29.382Z,99.90
2019-02-03T04:22:57.920Z,99.90
2019-02-03T04:25:27.245Z,99.90
2019-02-03T04:27:56.976Z,99.90
2019-02-03T04:30:26.480Z,99.90
2019-02-03T04:32:55.779Z,99.90
2019-02-03T04:35:29.589Z,99.90
2019-02-03T04:38:00.532Z,99.90
2019-02-03T04:40:45.760Z,99.90
2019-02-03T04:43:13.970Z,99.90
2019-02-03T04:45:41.882Z,99.90
2019-02-03T04:48:09.843Z,99.90
2019-02-03T04:50:37.737Z,99.90
2019-02-03T04:53:06.062Z,99.90
2019-02-03T04:55:33.986Z,99.90
2019-02-03T04:58:01.834Z,99.90
2019-02-03T05:00:29.798Z,99.90
2019-02-03T05:02:57.761Z,99.90
2019-02-03T05:05:29.543Z,99.90
2019-02-03T05:07:57.637Z,99.90
2019-02-03T05:10:25.529Z,99.90
2019-02-03T05:12:53.384Z,99.90
2019-02-03T05:15:23.158Z,99.90
2019-02-03T05:17:51.138Z,99.90
2019-02-03T05:20:22.526Z,99.90
2019-02-03T05:22:50.517Z,99.90
2019-02-03T05:25:18.450Z,99.90
2019-02-03T05:27:46.480Z,99.90
2019-02-03T05:30:21.241Z,99.90
2019-02-03T05:32:49.278Z,99.90
2019-02-03T05:35:17.733Z,99.90
2019-02-03T05:37:48.177Z,99.90
2019-02-03T05:40:16.486Z,99.90
2019-02-03T05:42:45.034Z,99.90
2019-02-03T05:45:16.063Z,99.90
2019-02-03T05:47:44.164Z,99.90
2019-02-03T05:50:14.213Z,99.90
2019-02-03T05:52:43.457Z,99.90
2019-02-03T05:55:11.820Z,99.90
2019-02-03T05:57:39.804Z,99.90
2019-02-03T06:00:12.307Z,99.90
2019-02-03T06:02:40.677Z,99.90
2019-02-03T06:05:08.878Z,99.90
2019-02-03T06:07:36.862Z,99.90
2019-02-03T06:10:08.950Z,99.90
2019-02-03T06:12:39.742Z,99.90
2019-02-03T06:15:08.128Z,99.90
2019-02-03T06:17:36.211Z,99.90
2019-02-03T06:20:05.773Z,99.90
2019-02-03T06:22:33.888Z,99.90
2019-02-03T06:25:01.749Z,99.90
2019-02-03T06:27:32.023Z,99.90
2019-02-03T06:29:59.873Z,99.90
2019-02-03T06:32:27.874Z,99.90
2019-02-03T06:34:57.214Z,99.90
2019-02-03T06:37:25.110Z,99.90
2019-02-03T06:39:54.460Z,99.90
2019-02-03T06:42:22.383Z,99.90
2019-02-03T06:44:50.344Z,99.90
2019-02-03T06:47:24.219Z,99.90
2019-02-03T06:49:52.091Z,99.80
2019-02-03T06:52:19.955Z,99.90
2019-02-03T06:54:47.914Z,99.90
2019-02-03T06:57:15.820Z,99.90
2019-02-03T06:59:50.933Z,99.50
2019-02-03T07:02:13.944Z,99.70
2019-02-03T07:04:41.869Z,99.50
2019-02-03T07:07:09.767Z,98.80
2019-02-03T07:09:37.565Z,99.70
2019-02-03T07:12:05.676Z,99.60
2019-02-03T07:14:33.955Z,99.80
2019-02-03T07:17:01.775Z,99.80
2019-02-03T07:19:29.719Z,99.10
2019-02-03T07:21:57.643Z,99.20
2019-02-03T07:24:25.445Z,99.20
2019-02-03T07:26:53.251Z,99.80
2019-02-03T07:29:21.184Z,99.60
2019-02-03T07:31:49.010Z,99.60
2019-02-03T07:34:16.790Z,99.20
2019-02-03T07:36:44.713Z,98.60
2019-02-03T07:39:12.520Z,99.30
2019-02-03T07:41:40.360Z,99.00
2019-02-03T07:44:08.447Z,99.20
2019-02-03T07:46:36.662Z,98.90
2019-02-03T07:49:04.586Z,99.50
2019-02-03T07:51:32.505Z,98.60
2019-02-03T07:54:08.098Z,99.30
2019-02-03T07:56:30.194Z,99.60
2019-02-03T07:58:58.300Z,99.70
2019-02-03T08:01:26.412Z,99.90
2019-02-03T08:03:54.363Z,99.90
2019-02-03T08:06:22.176Z,99.90
2019-02-03T08:08:49.987Z,99.90
2019-02-03T08:11:18.047Z,99.90
2019-02-03T08:13:45.852Z,99.90
2019-02-03T08:16:13.872Z,99.90
2019-02-03T08:18:41.993Z,99.90
2019-02-03T08:21:09.835Z,99.90
2019-02-03T08:23:37.716Z,99.90
2019-02-03T08:26:05.631Z,99.90
2019-02-03T08:28:33.537Z,99.90
2019-02-03T08:31:01.354Z,99.90
2019-02-03T08:33:29.454Z,99.90
2019-02-03T08:35:57.396Z,99.90
2019-02-03T08:38:25.187Z,99.90
2019-02-03T08:40:53.259Z,99.90
2019-02-03T08:43:21.177Z,99.90
2019-02-03T08:45:49.079Z,99.90
2019-02-03T08:48:17.017Z,99.90
2019-02-03T08:50:44.805Z,99.90
2019-02-03T08:53:12.717Z,99.90
2019-02-03T08:55:40.507Z,99.90
2019-02-03T08:58:08.443Z,99.90
2019-02-03T09:00:36.442Z,99.90
2019-02-03T09:03:04.570Z,99.90
2019-02-03T09:05:32.447Z,99.90
2019-02-03T09:08:00.548Z,99.90
2019-02-03T09:10:28.573Z,99.90
2019-02-03T09:12:56.479Z,99.90
2019-02-03T09:15:25.027Z,99.90
2019-02-03T09:17:52.996Z,99.90
2019-02-03T09:20:27.579Z,99.90
2019-02-03T09:22:55.422Z,99.90
2019-02-03T09:25:23.321Z,99.90
2019-02-03T09:27:51.369Z,99.90
2019-02-03T09:30:22.284Z,99.90
2019-02-03T09:32:50.558Z,99.90
2019-02-03T09:35:18.701Z,99.90
2019-02-03T09:37:46.714Z,99.90
2019-02-03T09:40:25.022Z,99.90
2019-02-03T09:42:52.971Z,99.90
2019-02-03T09:45:22.194Z,99.90
2019-02-03T09:47:50.537Z,99.90
2019-02-03T09:50:23.953Z,99.90
2019-02-03T09:52:54.254Z,99.90
2019-02-03T09:55:22.245Z,99.90
2019-02-03T09:57:50.037Z,99.90
2019-02-03T10:00:26.776Z,99.90
2019-02-03T10:02:56.423Z,99.90
2019-02-03T10:05:24.577Z,99.90
2019-02-03T10:07:52.745Z,99.90
2019-02-03T10:10:35.372Z,99.90
2019-02-03T10:13:04.182Z,99.90
2019-02-03T10:15:36.075Z,99.90
2019-02-03T10:18:06.864Z,99.90
2019-02-03T10:20:34.977Z,99.90
2019-02-03T10:23:03.375Z,99.90
2019-02-03T10:25:31.758Z,99.90
2019-02-03T10:27:59.605Z,99.90
2019-02-03T10:30:27.836Z,99.90
2019-02-03T10:32:59.269Z,99.90
2019-02-03T10:35:27.750Z,99.90
2019-02-03T10:37:58.783Z,99.90
2019-02-03T10:40:33.473Z,99.70
2019-02-03T10:43:02.227Z,99.50
2019-02-03T10:45:30.983Z,99.90
2019-02-03T10:47:59.695Z,99.90
2019-02-03T10:50:34.266Z,99.80
2019-02-03T10:53:05.153Z,99.80
2019-02-03T10:55:33.291Z,98.40
2019-02-03T10:58:01.582Z,97.80
2019-02-03T11:00:32.790Z,98.40
2019-02-03T11:03:01.330Z,99.30
2019-02-03T11:05:36.715Z,99.80
2019-02-03T11:08:06.204Z,96.90
2019-02-03T11:10:34.476Z,96.90
2019-02-03T11:13:02.324Z,96.00
2019-02-03T11:15:30.327Z,97.20
2019-02-03T11:17:58.273Z,98.10
2019-02-03T11:20:29.129Z,95.40
2019-02-03T11:23:16.886Z,96.70
2019-02-03T11:25:45.063Z,95.30
2019-02-03T11:28:13.091Z,96.10
2019-02-03T11:30:40.952Z,94.90
2019-02-03T11:33:10.037Z,95.00
2019-02-03T11:35:38.297Z,95.90
2019-02-03T11:38:06.830Z,94.50
2019-02-03T11:40:39.328Z,93.40
2019-02-03T11:43:07.446Z,93.10
2019-02-03T11:45:40.950Z,92.80
2019-02-03T11:48:18.605Z,93.90
2019-02-03T11:50:46.808Z,96.20
2019-02-03T11:53:18.430Z,93.40
2019-02-03T11:55:46.433Z,93.00
2019-02-03T11:58:14.265Z,91.80
2019-02-03T12:00:42.319Z,89.60
2019-02-03T12:03:10.482Z,88.30
2019-02-03T12:05:38.935Z,88.20
2019-02-03T12:08:07.387Z,90.90
2019-02-03T12:10:38.449Z,92.10
2019-02-03T12:13:09.542Z,85.70
2019-02-03T12:15:37.687Z,88.50
2019-02-03T12:18:06.401Z,78.90
2019-02-03T12:20:35.589Z,78.10
2019-02-03T12:23:04.395Z,82.10
2019-02-03T12:25:34.984Z,74.80
2019-02-03T12:28:05.981Z,71.20
2019-02-03T12:30:34.577Z,72.80
2019-02-03T12:33:03.053Z,75.70
2019-02-03T12:35:30.978Z,74.30
2019-02-03T12:37:59.056Z,76.20
2019-02-03T12:40:31.696Z,79.30
2019-02-03T12:42:59.811Z,73.80
2019-02-03T12:45:29.156Z,72.60
2019-02-03T12:47:57.110Z,69.50
2019-02-03T12:50:25.049Z,73.10
2019-02-03T12:52:53.203Z,69.60
2019-02-03T12:55:24.945Z,75.40
2019-02-03T12:57:53.036Z,72.00
2019-02-03T13:00:27.066Z,78.90
2019-02-03T13:02:55.152Z,69.70
2019-02-03T13:05:25.098Z,70.20
2019-02-03T13:07:54.313Z,67.00
2019-02-03T13:10:25.705Z,68.00
2019-02-03T13:12:54.144Z,68.10
2019-02-03T13:15:37.799Z,68.40
2019-02-03T13:18:07.017Z,67.80
2019-02-03T13:20:35.382Z,65.40
2019-02-03T13:23:05.221Z,67.60
2019-02-03T13:25:33.142Z,72.00
2019-02-03T13:28:01.166Z,72.20
2019-02-03T13:30:38.084Z,74.00
2019-02-03T13:33:06.651Z,74.60
2019-02-03T13:35:34.521Z,80.50
2019-02-03T13:38:03.120Z,76.20
2019-02-03T13:40:32.486Z,73.20
2019-02-03T13:43:02.424Z,72.40
2019-02-03T13:45:31.916Z,73.30
2019-02-03T13:48:03.289Z,73.40
2019-02-03T13:50:32.409Z,69.80
2019-02-03T13:53:02.496Z,67.10
2019-02-03T13:55:35.068Z,65.50
2019-02-03T13:58:07.017Z,68.30
2019-02-03T14:00:43.674Z,64.90
2019-02-03T14:03:16.739Z,65.40
2019-02-03T14:05:48.830Z,62.30
2019-02-03T14:08:19.385Z,64.50
2019-02-03T14:10:49.484Z,68.70
2019-02-03T14:13:19.953Z,67.70
2019-02-03T14:15:50.571Z,69.40
2019-02-03T14:18:23.611Z,65.80
2019-02-03T14:20:54.852Z,66.10
2019-02-03T14:23:24.708Z,63.00
2019-02-03T14:25:59.486Z,64.00
2019-02-03T14:28:28.929Z,64.20
2019-02-03T14:31:17.672Z,67.50
2019-02-03T14:33:46.193Z,66.50
2019-02-03T14:36:16.330Z,69.30
2019-02-03T14:38:46.531Z,67.80
2019-02-03T14:41:20.982Z,66.00
2019-02-03T14:43:49.517Z,62.70
2019-02-03T14:46:18.012Z,63.80
2019-02-03T14:48:51.443Z,62.30
2019-02-03T14:51:27.162Z,58.80
2019-02-03T14:53:59.938Z,61.80
2019-02-03T14:56:34.757Z,59.60
2019-02-03T14:59:06.232Z,65.00
2019-02-03T15:01:38.419Z,63.60
2019-02-03T15:04:07.002Z,64.90
2019-02-03T15:06:38.299Z,63.90
2019-02-03T15:09:12.835Z,65.50
2019-02-03T15:11:41.001Z,65.00
2019-02-03T15:14:09.119Z,68.20
2019-02-03T15:16:42.214Z,66.90
2019-02-03T15:19:10.295Z,70.30
2019-02-03T15:21:40.022Z,72.40
2019-02-03T15:24:16.424Z,70.90
2019-02-03T15:26:43.807Z,65.60
2019-02-03T15:29:11.728Z,68.50
2019-02-03T15:31:40.179Z,67.10
2019-02-03T15:34:11.694Z,68.70
2019-02-03T15:36:44.294Z,69.70
2019-02-03T15:39:17.321Z,70.10
2019-02-03T15:41:52.502Z,72.30
2019-02-03T15:44:21.304Z,71.90
2019-02-03T15:46:58.499Z,75.00
2019-02-03T15:49:35.386Z,75.70
2019-02-03T15:52:03.673Z,76.30
2019-02-03T15:54:36.670Z,78.00
2019-02-03T15:57:05.094Z,77.60
2019-02-03T15:59:34.381Z,78.80
2019-02-03T16:02:03.657Z,79.80
2019-02-03T16:04:36.716Z,80.40
2019-02-03T16:07:07.678Z,81.20
2019-02-03T16:09:37.754Z,82.10
2019-02-03T16:12:08.468Z,84.00
2019-02-03T16:14:36.553Z,82.90
2019-02-03T16:17:05.158Z,83.30
2019-02-03T16:19:35.659Z,82.50
2019-02-03T16:22:03.973Z,81.90
2019-02-03T16:24:32.400Z,82.40
2019-02-03T16:27:01.070Z,81.30
2019-02-03T16:29:29.386Z,81.80
2019-02-03T16:31:57.406Z,82.50
2019-02-03T16:34:25.410Z,82.80
2019-02-03T16:36:53.503Z,81.80
2019-02-03T16:39:21.411Z,85.60
2019-02-03T16:41:49.437Z,86.00
2019-02-03T16:44:17.652Z,85.20
2019-02-03T16:46:45.758Z,86.50
2019-02-03T16:49:16.548Z,85.30
2019-02-03T16:51:44.267Z,85.10
2019-02-03T16:54:14.692Z,87.20
2019-02-03T16:56:44.003Z,87.20
2019-02-03T16:59:11.897Z,87.40
2019-02-03T17:01:42.219Z,87.30
2019-02-03T17:04:15.076Z,88.20
2019-02-03T17:06:43.003Z,89.40
2019-02-03T17:09:11.438Z,90.40
2019-02-03T17:11:39.503Z,90.20
2019-02-03T17:14:07.620Z,91.10
2019-02-03T17:16:35.713Z,92.40
2019-02-03T17:19:04.904Z,92.30
2019-02-03T17:21:33.011Z,92.10
2019-02-03T17:24:03.549Z,93.00
2019-02-03T17:26:30.905Z,92.90
2019-02-03T17:28:59.011Z,92.60
2019-02-03T17:31:27.086Z,94.00
2019-02-03T17:35:16.075Z,93.10
2019-02-03T17:37:44.122Z,92.50
2019-02-03T17:40:12.719Z,93.40
2019-02-03T17:42:40.684Z,93.30
2019-02-03T17:45:13.662Z,93.60
2019-02-03T17:47:41.883Z,93.90
2019-02-03T17:50:14.118Z,94.60
2019-02-03T17:52:42.188Z,95.00
2019-02-03T17:55:11.757Z,95.00
2019-02-03T17:57:39.836Z,94.80
2019-02-03T18:00:12.913Z,94.90
2019-02-03T18:02:40.983Z,95.20
2019-02-03T18:05:10.696Z,95.50
2019-02-03T18:07:40.931Z,95.90
2019-02-03T18:10:13.799Z,96.70
2019-02-03T18:12:41.847Z,97.00
2019-02-03T18:15:10.638Z,97.20
2019-02-03T18:17:40.818Z,98.50
2019-02-03T18:20:13.558Z,98.60
2019-02-03T18:22:41.418Z,97.90
2019-02-03T18:25:10.220Z,99.10
2019-02-03T18:27:38.591Z,99.20
2019-02-03T18:30:13.270Z,99.30
2019-02-03T18:32:41.793Z,99.30
2019-02-03T18:35:09.950Z,98.90
2019-02-03T18:37:37.825Z,99.40
2019-02-03T18:40:07.646Z,98.90
2019-02-03T18:42:36.159Z,98.70
2019-02-03T18:45:06.822Z,98.90
2019-02-03T18:47:34.682Z,98.80
2019-02-03T18:50:04.618Z,98.80
2019-02-03T18:52:33.193Z,99.60
2019-02-03T18:55:01.106Z,98.20
2019-02-03T18:57:28.945Z,98.80
2019-02-03T18:59:57.691Z,98.90
2019-02-03T19:02:25.633Z,98.60
2019-02-03T19:04:53.652Z,98.60
2019-02-03T19:07:21.550Z,98.60
2019-02-03T19:09:49.401Z,99.00
2019-02-03T19:12:18.091Z,99.10
2019-02-03T19:14:47.709Z,99.20
2019-02-03T19:17:19.775Z,99.50
2019-02-03T19:19:47.813Z,99.30
2019-02-03T19:22:15.654Z,99.90
2019-02-03T19:24:43.578Z,99.90
2019-02-03T19:27:12.583Z,99.90
2019-02-03T19:29:40.447Z,99.90
2019-02-03T19:32:08.558Z,99.90
2019-02-03T19:34:36.836Z,99.90
2019-02-03T19:37:05.849Z,99.90
2019-02-03T19:39:34.079Z,99.20
2019-02-03T19:42:02.279Z,99.20
2019-02-03T19:44:30.231Z,99.40
2019-02-03T19:47:01.000Z,99.10
2019-02-03T19:49:29.353Z,99.30
2019-02-03T19:52:00.015Z,99.40
2019-02-03T19:54:28.347Z,99.70
2019-02-03T19:56:58.787Z,99.90
2019-02-03T19:59:26.829Z,99.90
2019-02-03T20:01:54.728Z,99.90
2019-02-03T20:04:22.609Z,99.90
2019-02-03T20:06:57.562Z,99.90
2019-02-03T20:09:25.890Z,99.90
2019-02-03T20:11:58.394Z,99.90
2019-02-03T20:14:27.195Z,99.90
2019-02-03T20:16:55.175Z,99.90
2019-02-03T20:19:23.093Z,99.90
2019-02-03T20:21:52.789Z,99.90
2019-02-03T20:24:21.556Z,99.90
2019-02-03T20:26:49.510Z,99.90
2019-02-03T20:29:17.714Z,99.90
2019-02-03T20:31:45.914Z,99.90
2019-02-03T20:34:19.354Z,99.90
2019-02-03T20:36:50.111Z,99.90
2019-02-03T20:39:21.358Z,99.90
2019-02-03T20:41:52.369Z,99.90
2019-02-03T20:44:20.319Z,99.90
2019-02-03T20:46:48.359Z,99.90
2019-02-03T20:49:16.359Z,99.90
2019-02-03T20:51:44.256Z,99.90
2019-02-03T20:54:12.357Z,99.90
2019-02-03T20:56:42.325Z,99.90
2019-02-03T20:59:10.287Z,99.90
2019-02-03T21:01:44.454Z,99.90
2019-02-03T21:04:12.615Z,99.90
2019-02-03T21:06:40.988Z,99.90
2019-02-03T21:09:09.423Z,99.90
2019-02-03T21:11:37.968Z,99.90
2019-02-03T21:14:06.211Z,99.90
2019-02-03T21:16:34.316Z,99.90
2019-02-03T21:19:02.346Z,99.90
2019-02-03T21:21:35.792Z,99.90
2019-02-03T21:24:03.820Z,99.90
2019-02-03T21:26:35.342Z,99.90
2019-02-03T21:29:04.899Z,99.90
2019-02-03T21:31:34.005Z,99.90
2019-02-03T21:34:03.642Z,99.90
2019-02-03T21:36:31.689Z,99.90
2019-02-03T21:39:01.267Z,99.90
2019-02-03T21:41:29.259Z,99.90
2019-02-03T21:43:57.356Z,99.90
2019-02-03T21:46:27.260Z,99.90
2019-02-03T21:48:55.232Z,99.90
2019-02-03T21:51:23.662Z,99.90
2019-02-03T21:53:51.837Z,99.90
2019-02-03T21:56:19.777Z,99.90
2019-02-03T21:58:47.713Z,99.90
2019-02-03T22:01:17.279Z,99.90
2019-02-03T22:03:45.295Z,99.90
2019-02-03T22:06:14.684Z,99.90
2019-02-03T22:08:42.696Z,99.90
2019-02-03T22:11:10.635Z,99.90
2019-02-03T22:13:38.539Z,99.90
2019-02-03T22:16:06.693Z,99.90
2019-02-03T22:18:34.571Z,99.90
2019-02-03T22:21:05.680Z,99.90
2019-02-03T22:23:33.883Z,99.90
2019-02-03T22:26:03.461Z,99.90
2019-02-03T22:28:34.361Z,99.90
2019-02-03T22:31:04.634Z,99.90
2019-02-03T22:33:33.313Z,99.90
2019-02-03T22:36:03.789Z,99.90
2019-02-03T22:38:31.925Z,99.90
2019-02-03T22:41:01.518Z,99.90
2019-02-03T22:43:29.659Z,99.90
2019-02-03T22:46:07.097Z,99.90
2019-02-03T22:48:30.457Z,99.90
2019-02-03T22:50:58.641Z,99.20
2019-02-03T22:53:29.531Z,99.60
2019-02-03T22:55:57.583Z,99.70
2019-02-03T22:58:30.234Z,99.90
2019-02-03T23:01:13.907Z,99.50
2019-02-03T23:04:20.627Z,99.90
2019-02-03T23:06:51.746Z,99.90
2019-02-03T23:09:26.855Z,99.90
2019-02-03T23:11:55.457Z,99.90
2019-02-03T23:14:23.531Z,99.90
2019-02-03T23:16:51.562Z,99.90
2019-02-03T23:19:22.855Z,99.90
2019-02-03T23:21:51.040Z,99.90
2019-02-03T23:24:22.044Z,99.90
2019-02-03T23:26:52.578Z,99.90
2019-02-03T23:29:22.998Z,99.90
2019-02-03T23:31:53.811Z,99.90
2019-02-03T23:34:23.867Z,99.90
2019-02-03T23:36:53.328Z,99.90
2019-02-03T23:39:21.590Z,99.90
2019-02-03T23:41:49.419Z,99.90
2019-02-03T23:44:17.691Z,99.90
2019-02-03T23:46:45.730Z,99.50
2019-02-03T23:49:13.647Z,99.90
2019-02-03T23:51:41.773Z,99.90
2019-02-03T23:54:09.864Z,99.90
2019-02-03T23:56:37.836Z,99.90
2019-02-03T23:59:06.315Z,99.90
